createdAt,value
2022-10-19T00:02:34.000Z,9.92
2022-10-19T00:07:34.000Z,8.77
2022-10-19T00:12:35.000Z,8.9
2022-10-19T00:17:35.000Z,7.05
2022-10-19T00:22:34.000Z,7.34
2022-10-19T00:27:35.000Z,7.16
2022-10-19T00:37:34.000Z,6.66
2022-10-19T00:42:35.000Z,7.62
2022-10-19T00:47:35.000Z,7.53
2022-10-19T00:52:35.000Z,8.71
2022-10-19T00:57:34.000Z,10.91
2022-10-19T01:02:35.000Z,7.99
2022-10-19T01:07:35.000Z,7.99
2022-10-19T01:12:34.000Z,7.08
2022-10-19T01:17:35.000Z,6.52
2022-10-19T01:22:35.000Z,4.91
2022-10-19T01:27:35.000Z,5.63
2022-10-19T01:32:35.000Z,9.19
2022-10-19T01:37:35.000Z,8.35
2022-10-19T01:42:35.000Z,7.48
2022-10-19T01:47:34.000Z,7.82
2022-10-19T01:52:34.000Z,6.42
2022-10-19T01:57:35.000Z,5.72
2022-10-19T02:02:35.000Z,5.12
2022-10-19T02:07:35.000Z,8.59
2022-10-19T02:12:35.000Z,5.3
2022-10-19T02:17:34.000Z,5.33
2022-10-19T02:22:35.000Z,5.33
2022-10-19T02:27:35.000Z,5.89
2022-10-19T02:32:35.000Z,10.43
2022-10-19T02:42:34.000Z,15.41
2022-10-19T02:47:35.000Z,13.69
2022-10-19T02:52:35.000Z,13.05
2022-10-19T02:57:35.000Z,11.38
2022-10-19T03:02:34.000Z,11.36
2022-10-19T03:07:35.000Z,11.85
2022-10-19T03:12:34.000Z,11.01
2022-10-19T03:17:35.000Z,8.92
2022-10-19T03:22:34.000Z,7.36
2022-10-19T03:27:34.000Z,8.63
2022-10-19T03:32:35.000Z,10.79
2022-10-19T03:37:34.000Z,10.79
2022-10-19T03:42:35.000Z,12.2
2022-10-19T03:47:34.000Z,12.31
2022-10-19T03:52:35.000Z,12.01
2022-10-19T03:57:35.000Z,10.62
2022-10-19T04:02:34.000Z,11.41
2022-10-19T04:07:35.000Z,9.88
2022-10-19T04:12:34.000Z,12.25
2022-10-19T04:22:35.000Z,13.93
2022-10-19T04:27:35.000Z,12.88
2022-10-19T04:32:35.000Z,14.14
2022-10-19T04:42:35.000Z,15.57
2022-10-19T04:47:35.000Z,17.08
2022-10-19T04:52:35.000Z,18.46
2022-10-19T04:57:35.000Z,19.96
2022-10-19T05:02:34.000Z,18.07
2022-10-19T05:07:35.000Z,16.24
2022-10-19T05:12:34.000Z,16.24
2022-10-19T05:17:35.000Z,17.37
2022-10-19T05:22:34.000Z,17.01
2022-10-19T05:27:35.000Z,16.5
2022-10-19T05:32:35.000Z,20.17
2022-10-19T05:37:34.000Z,23.25
2022-10-19T05:42:35.000Z,21.77
2022-10-19T05:47:40.000Z,23.32
2022-10-19T05:52:35.000Z,25.4
2022-10-19T05:57:34.000Z,21.08
2022-10-19T06:02:34.000Z,22.74
2022-10-19T06:07:35.000Z,19.58
2022-10-19T06:12:35.000Z,19.58
2022-10-19T06:17:35.000Z,19.94
2022-10-19T06:22:34.000Z,20.21
2022-10-19T06:27:35.000Z,20.34
2022-10-19T06:32:35.000Z,26.14
2022-10-19T06:37:34.000Z,30.17
2022-10-19T06:42:34.000Z,28.68
2022-10-19T06:47:34.000Z,24.86
2022-10-19T06:52:34.000Z,23.6
2022-10-19T06:57:35.000Z,18.88
2022-10-19T07:02:34.000Z,21.69
2022-10-19T07:07:34.000Z,20.56
2022-10-19T07:12:34.000Z,21.46
2022-10-19T07:17:34.000Z,24.35
2022-10-19T07:22:38.000Z,27.33
2022-10-19T07:27:35.000Z,27.33
2022-10-19T07:32:34.000Z,27.83
2022-10-19T07:37:35.000Z,35.16
2022-10-19T07:42:35.000Z,31.96
2022-10-19T07:47:34.000Z,25.36
2022-10-19T07:52:34.000Z,21.49
2022-10-19T07:57:35.000Z,23.59
2022-10-19T08:02:49.000Z,25.55
2022-10-19T08:07:34.000Z,28.16
2022-10-19T08:12:35.000Z,28.04
2022-10-19T08:17:35.000Z,27.12
2022-10-19T08:22:35.000Z,29.37
2022-10-19T08:32:34.000Z,27.79
2022-10-19T08:37:54.000Z,29.31
2022-10-19T08:42:35.000Z,29.31
2022-10-19T08:47:35.000Z,28.48
2022-10-19T08:52:34.000Z,28.57
2022-10-19T09:02:34.000Z,23.75
2022-10-19T09:07:35.000Z,20.36
2022-10-19T09:12:35.000Z,21.28
2022-10-19T09:17:34.000Z,20.85
2022-10-19T09:22:35.000Z,20.85
2022-10-19T09:27:35.000Z,20.69
2022-10-19T09:32:35.000Z,17.54
2022-10-19T09:37:37.000Z,16.21
2022-10-19T09:42:35.000Z,15.09
2022-10-19T09:47:35.000Z,14.51
2022-10-19T09:52:35.000Z,15.75
2022-10-19T10:02:35.000Z,17.04
2022-10-19T10:07:34.000Z,15.81
2022-10-19T10:12:34.000Z,15.85
2022-10-19T10:17:34.000Z,23.25
2022-10-19T10:22:35.000Z,21.44
2022-10-19T10:27:35.000Z,28.68
2022-10-19T10:32:35.000Z,32.26
2022-10-19T10:37:35.000Z,32.26
2022-10-19T10:42:35.000Z,35.93
2022-10-19T10:47:35.000Z,31.89
2022-10-19T10:52:34.000Z,23.96
2022-10-19T10:57:35.000Z,20.38
2022-10-19T11:02:35.000Z,20.47
2022-10-19T11:07:35.000Z,20.76
2022-10-19T11:12:35.000Z,19.82
2022-10-19T11:17:34.000Z,18.7
2022-10-19T11:22:37.000Z,21.58
2022-10-19T11:27:35.000Z,20.55
2022-10-19T11:32:35.000Z,18.41
2022-10-19T11:37:35.000Z,17.74
2022-10-19T11:42:35.000Z,16.36
2022-10-19T11:52:35.000Z,16.8
2022-10-19T11:57:35.000Z,21.13
2022-10-19T12:02:35.000Z,33.24
2022-10-19T12:07:34.000Z,36.9
2022-10-19T12:12:35.000Z,32.68
2022-10-19T12:17:35.000Z,23.85
2022-10-19T12:22:35.000Z,20.03
2022-10-19T12:27:34.000Z,18.12
2022-10-19T12:32:35.000Z,17.66
2022-10-19T12:37:35.000Z,16.84
2022-10-19T12:42:35.000Z,17.36
2022-10-19T12:47:35.000Z,18.74
2022-10-19T12:52:35.000Z,19.34
2022-10-19T12:57:34.000Z,19.34
2022-10-19T13:02:35.000Z,16.85
2022-10-19T13:07:34.000Z,15.52
2022-10-19T13:12:36.000Z,13.88
2022-10-19T13:17:34.000Z,15.66
2022-10-19T13:22:34.000Z,17.62
2022-10-19T13:27:34.000Z,17.27
2022-10-19T13:32:35.000Z,17.67
2022-10-19T13:37:35.000Z,18.96
2022-10-19T13:42:35.000Z,28.05
2022-10-19T13:52:34.000Z,25.42
2022-10-19T13:57:35.000Z,20.49
2022-10-19T14:02:34.000Z,17.11
2022-10-19T14:07:35.000Z,16.8
2022-10-19T14:12:35.000Z,16.29
2022-10-19T14:17:35.000Z,16.29
2022-10-19T14:22:34.000Z,16.13
2022-10-19T14:27:34.000Z,11.31
2022-10-19T14:32:35.000Z,11.35
2022-10-19T14:42:34.000Z,13.85
2022-10-19T14:47:35.000Z,14.9
2022-10-19T14:52:35.000Z,12.7
2022-10-19T14:57:34.000Z,13.2
2022-10-19T15:02:35.000Z,15.14
2022-10-19T15:07:35.000Z,12.59
2022-10-19T15:12:34.000Z,14.31
2022-10-19T15:17:34.000Z,14.31
2022-10-19T15:22:34.000Z,13.88
2022-10-19T15:27:35.000Z,13.38
2022-10-19T15:32:35.000Z,12.5
2022-10-19T15:37:35.000Z,15.78
2022-10-19T15:42:35.000Z,17.41
2022-10-19T15:47:34.000Z,13.12
2022-10-19T15:52:35.000Z,13.44
2022-10-19T15:57:35.000Z,13.24
2022-10-19T16:02:35.000Z,11.59
2022-10-19T16:07:34.000Z,12.17
2022-10-19T16:12:35.000Z,10.81
2022-10-19T16:17:34.000Z,9.49
2022-10-19T16:22:34.000Z,8.94
2022-10-19T16:27:35.000Z,9.66
2022-10-19T16:37:34.000Z,9.42
2022-10-19T16:42:40.000Z,8.16
2022-10-19T16:47:34.000Z,9.02
2022-10-19T16:52:35.000Z,8.32
2022-10-19T17:02:35.000Z,10.78
2022-10-19T17:07:34.000Z,10.78
2022-10-19T17:12:34.000Z,11.65
2022-10-19T17:17:35.000Z,12.07
2022-10-19T17:22:34.000Z,13.62
2022-10-19T17:27:34.000Z,12.9
2022-10-19T17:32:34.000Z,12.88
2022-10-19T17:37:34.000Z,12.51
2022-10-19T17:42:35.000Z,14.9
2022-10-19T17:47:35.000Z,17.25
2022-10-19T17:52:35.000Z,14.85
2022-10-19T17:57:35.000Z,13.91
2022-10-19T18:02:35.000Z,12.81
2022-10-19T18:07:35.000Z,13.95
2022-10-19T18:12:34.000Z,11.66
2022-10-19T18:17:38.000Z,11.09
2022-10-19T18:22:34.000Z,11.09
2022-10-19T18:32:35.000Z,12.57
2022-10-19T18:37:34.000Z,11
2022-10-19T18:42:35.000Z,11.79
2022-10-19T18:47:35.000Z,11.18
2022-10-19T18:52:35.000Z,11.34
2022-10-19T19:02:45.000Z,12.25
2022-10-19T19:07:34.000Z,10.7
2022-10-19T19:12:34.000Z,9.16
2022-10-19T19:17:34.000Z,9.53
2022-10-19T19:22:35.000Z,9.03
2022-10-19T19:32:34.000Z,9.47
2022-10-19T19:37:35.000Z,9.69
2022-10-19T19:42:38.000Z,11.47
2022-10-19T19:47:34.000Z,9.31
2022-10-19T19:52:34.000Z,11.68
2022-10-19T19:57:35.000Z,8.51
2022-10-19T20:02:35.000Z,11.15
2022-10-19T20:12:35.000Z,14.14
2022-10-19T20:17:35.000Z,9.23
2022-10-19T20:22:34.000Z,10.86
2022-10-19T20:27:35.000Z,7.72
2022-10-19T20:32:35.000Z,6.66
2022-10-19T20:37:34.000Z,6.52
2022-10-19T20:42:35.000Z,8.51
2022-10-19T20:47:34.000Z,11.76
2022-10-19T20:52:35.000Z,12.9
2022-10-19T20:57:35.000Z,12
2022-10-19T21:02:35.000Z,12
2022-10-19T21:07:35.000Z,7.84
2022-10-19T21:12:34.000Z,6.69
2022-10-19T21:17:35.000Z,8.13
2022-10-19T21:22:34.000Z,9.06
2022-10-19T21:27:35.000Z,11.57
2022-10-19T21:32:35.000Z,7.8
2022-10-19T21:37:34.000Z,7.78
2022-10-19T21:42:35.000Z,7.25
2022-10-19T21:47:34.000Z,7.75
2022-10-19T21:52:34.000Z,8.61
2022-10-19T21:57:35.000Z,8.37
2022-10-19T22:02:35.000Z,9.03
2022-10-19T22:07:34.000Z,8.42
2022-10-19T22:12:34.000Z,8.95
2022-10-19T22:17:35.000Z,8.95
2022-10-19T22:22:34.000Z,8.82
2022-10-19T22:27:34.000Z,8.48
2022-10-19T22:32:35.000Z,8.16
2022-10-19T22:37:35.000Z,8.57
2022-10-19T22:42:35.000Z,8.58
2022-10-19T22:47:35.000Z,8.81
2022-10-19T22:52:35.000Z,8.43
2022-10-19T22:57:35.000Z,9.36
2022-10-19T23:02:34.000Z,8.14
2022-10-19T23:07:35.000Z,7.04
2022-10-19T23:12:35.000Z,6.48
2022-10-19T23:22:34.000Z,6.32
2022-10-19T23:27:35.000Z,5.25
2022-10-19T23:32:34.000Z,5.25
2022-10-19T23:37:35.000Z,5.11
2022-10-19T23:42:34.000Z,4.93
2022-10-19T23:47:35.000Z,5.26
2022-10-19T23:52:35.000Z,5.95
2022-10-19T23:57:35.000Z,5.78
